Dorothy Ann — WDE8761 — position and weather

sailwx.info

Track history (hours):
 
Tides and Currents Weather Stations Pressure Air Temp Water Temp Dewpoint Dewpoint Depression Visibility Wind Speed Wind Dir Waves Ship Positions

Dorothy Ann

Owner: THE INTERLAKE STEAMSHIP COMPANY, Middleburg Heights, OH. More information available from US FCC via Universal Licensing System and Coast Guard Vessel Documentation Center.

Last reported at 2014-Oct-13 19:24 UTC. Time now 2014-Oct-24 15:29 UTC.
Position N 45°42' W 084°19'.
Warning: this ship's position is 10 days out of date.

Length 215 m; draft 5.1 m.

Type: Cargo ship. MMSI: 367409260.

Date/timePositionNaut miles runAvg speedWind from/ knotsBaromVisibWave heightAir tempDewpointWater temp
2014-Oct-13 19:24N 45°42' W 084°19'6 6.6
2014-Oct-13 18:33N 45°42' W 084°27'6 6.5
2014-Oct-13 17:33N 45°45' W 084°35'7 6.7
2014-Oct-13 16:33N 45°49' W 084°43'6 6.3
2014-Oct-13 15:33N 45°49' W 084°52'6 6.5
2014-Oct-13 14:33N 45°50' W 085°01'5 5.2
2014-Oct-13 13:34N 45°48' W 085°09'7 6.5
2014-Oct-13 12:33N 45°42' W 085°13'7 6.9
2014-Oct-13 11:33N 45°37' W 085°19'7 7.0
2014-Oct-13 10:33N 45°31' W 085°24'7 7.0
2014-Oct-13 09:33N 45°26' W 085°30'7 7.1
2014-Oct-13 08:33N 45°20' W 085°36'7 7.0
2014-Oct-13 07:31N 45°14' W 085°42'14 6.9
2014-Oct-13 05:33N 45°03' W 085°54'  
2014-Oct-10 18:30N 45°33' W 086°16'6 6.1
2014-Oct-10 17:33N 45°37' W 086°10'6 6.3
2014-Oct-10 16:33N 45°41' W 086°04'6 6.2
2014-Oct-10 15:33N 45°44' W 085°56'6 5.9
2014-Oct-10 14:33N 45°47' W 085°49'6 5.8
2014-Oct-10 13:33N 45°50' W 085°41'6 5.7
2014-Oct-10 12:33N 45°53' W 085°34'6 5.7
2014-Oct-10 11:33N 45°53' W 085°26'6 5.7
2014-Oct-10 10:33N 45°53' W 085°18'6 5.7
2014-Oct-10 09:34N 45°52' W 085°10'6 5.8
2014-Oct-10 08:33N 45°51' W 085°02'6 5.6
2014-Oct-10 07:33N 45°50' W 084°54'6 5.9
2014-Oct-10 06:33N 45°49' W 084°46'6 5.7
2014-Oct-10 05:33N 45°47' W 084°38'6 5.7
2014-Oct-10 04:33N 45°44' W 084°31'6 5.8
2014-Oct-10 03:33N 45°42' W 084°24'6 5.4
2014-Oct-10 02:31N 45°41' W 084°16'  
Track history (hours):
 
Tides and Currents Weather Stations Pressure Air Temp Water Temp Dewpoint Dewpoint Depression Visibility Wind Speed Wind Dir Waves Ship Positions

Dorothy Ann

Owner: THE INTERLAKE STEAMSHIP COMPANY, Middleburg Heights, OH. More information available from US FCC via Universal Licensing System and Coast Guard Vessel Documentation Center.

Last reported at 2014-Oct-13 19:24 UTC. Time now 2014-Oct-24 15:29 UTC.
Position N 45°42' W 084°19'.
Warning: this ship's position is 10 days out of date.

Length 215 m; draft 5.1 m.

Type: Cargo ship. MMSI: 367409260.

Date/timePositionNaut miles runAvg speedWind from/ knotsBaromVisibWave heightAir tempDewpointWater temp
2014-Oct-13 19:24N 45°42' W 084°19'6 6.6
2014-Oct-13 18:33N 45°42' W 084°27'6 6.5
2014-Oct-13 17:33N 45°45' W 084°35'7 6.7
2014-Oct-13 16:33N 45°49' W 084°43'6 6.3
2014-Oct-13 15:33N 45°49' W 084°52'6 6.5
2014-Oct-13 14:33N 45°50' W 085°01'5 5.2
2014-Oct-13 13:34N 45°48' W 085°09'7 6.5
2014-Oct-13 12:33N 45°42' W 085°13'7 6.9
2014-Oct-13 11:33N 45°37' W 085°19'7 7.0
2014-Oct-13 10:33N 45°31' W 085°24'7 7.0
2014-Oct-13 09:33N 45°26' W 085°30'7 7.1
2014-Oct-13 08:33N 45°20' W 085°36'7 7.0
2014-Oct-13 07:31N 45°14' W 085°42'14 6.9
2014-Oct-13 05:33N 45°03' W 085°54'  
2014-Oct-10 18:30N 45°33' W 086°16'6 6.1
2014-Oct-10 17:33N 45°37' W 086°10'6 6.3
2014-Oct-10 16:33N 45°41' W 086°04'6 6.2
2014-Oct-10 15:33N 45°44' W 085°56'6 5.9
2014-Oct-10 14:33N 45°47' W 085°49'6 5.8
2014-Oct-10 13:33N 45°50' W 085°41'6 5.7
2014-Oct-10 12:33N 45°53' W 085°34'6 5.7
2014-Oct-10 11:33N 45°53' W 085°26'6 5.7
2014-Oct-10 10:33N 45°53' W 085°18'6 5.7
2014-Oct-10 09:34N 45°52' W 085°10'6 5.8
2014-Oct-10 08:33N 45°51' W 085°02'6 5.6
2014-Oct-10 07:33N 45°50' W 084°54'6 5.9
2014-Oct-10 06:33N 45°49' W 084°46'6 5.7
2014-Oct-10 05:33N 45°47' W 084°38'6 5.7
2014-Oct-10 04:33N 45°44' W 084°31'6 5.8
2014-Oct-10 03:33N 45°42' W 084°24'6 5.4
2014-Oct-10 02:31N 45°41' W 084°16'  

Dump ship's entire track history